Sea Service — WDA4909 — position and weather

sailwx.info

Track history (hours):
 
Tides and Currents Weather Stations Pressure Air Temp Water Temp Dewpoint Dewpoint Depression Visibility Wind Speed Wind Dir Waves Ship Positions

Sea Service

Owner: Hornbeck Offshore Transportation, LLC, Covington, LA. More information available from US FCC via Universal Licensing System and Coast Guard Vessel Documentation Center.

Last reported at 2018-Jan-18 05:33 UTC. Time now 2018-Jan-18 07:29 UTC.
Position N 39°00' W 076°23'.

Length 33 m.

Type: Towing. MMSI: 366814440.

Date/timePositionNaut miles runAvg speedWind from/ knotsBaromVisibWave heightAir tempDewpointWater temp
2018-Jan-18 05:33N 39°00' W 076°23'0 4.6
2018-Jan-18 05:29N 38°60' W 076°23'2 4.5
2018-Jan-18 04:58N 38°57' W 076°24'2 4.0
2018-Jan-18 04:30N 38°56' W 076°23'3 4.7
2018-Jan-18 03:50N 38°53' W 076°24'2 4.6
2018-Jan-18 03:27N 38°51' W 076°25'  
2018-Jan-10 09:18N 38°51' W 076°26'2 5.4
2018-Jan-10 09:00N 38°53' W 076°26'3 5.3
2018-Jan-10 08:30N 38°55' W 076°25'19 1.2
2018-Jan-09 16:42N 39°13' W 076°34'2 0.2
2018-Jan-09 01:33N 39°16' W 076°34'0 7.3
2018-Jan-09 01:29N 39°16' W 076°35'1 0.8
2018-Jan-08 23:58N 39°17' W 076°36'0 0.0
2018-Jan-08 23:30N 39°17' W 076°36'0 0.5
2018-Jan-08 23:00N 39°17' W 076°35'4 0.3
2018-Jan-08 10:40N 39°13' W 076°34'  
Track history (hours):
 
Tides and Currents Weather Stations Pressure Air Temp Water Temp Dewpoint Dewpoint Depression Visibility Wind Speed Wind Dir Waves Ship Positions

Sea Service

Owner: Hornbeck Offshore Transportation, LLC, Covington, LA. More information available from US FCC via Universal Licensing System and Coast Guard Vessel Documentation Center.

Last reported at 2018-Jan-18 05:33 UTC. Time now 2018-Jan-18 07:29 UTC.
Position N 39°00' W 076°23'.

Length 33 m.

Type: Towing. MMSI: 366814440.

Date/timePositionNaut miles runAvg speedWind from/ knotsBaromVisibWave heightAir tempDewpointWater temp
2018-Jan-18 05:33N 39°00' W 076°23'0 4.6
2018-Jan-18 05:29N 38°60' W 076°23'2 4.5
2018-Jan-18 04:58N 38°57' W 076°24'2 4.0
2018-Jan-18 04:30N 38°56' W 076°23'3 4.7
2018-Jan-18 03:50N 38°53' W 076°24'2 4.6
2018-Jan-18 03:27N 38°51' W 076°25'  
2018-Jan-10 09:18N 38°51' W 076°26'2 5.4
2018-Jan-10 09:00N 38°53' W 076°26'3 5.3
2018-Jan-10 08:30N 38°55' W 076°25'19 1.2
2018-Jan-09 16:42N 39°13' W 076°34'2 0.2
2018-Jan-09 01:33N 39°16' W 076°34'0 7.3
2018-Jan-09 01:29N 39°16' W 076°35'1 0.8
2018-Jan-08 23:58N 39°17' W 076°36'0 0.0
2018-Jan-08 23:30N 39°17' W 076°36'0 0.5
2018-Jan-08 23:00N 39°17' W 076°35'4 0.3
2018-Jan-08 10:40N 39°13' W 076°34'  

Dump ship's entire track history